Time;durP1;ratioP1;P1;durP2;ratioP2;P2;SDS_P1;SDS_P2;PMS_P1;PMS_P2;Temp;Humidity;BMP_temperature;BMP_pressure;BME280_temperature;BME280_humidity;BME280_pressure;Samples;Min_cycle;Max_cycle;Signal;HPM_P1;HPM_P2
2022/11/21 00:00:41;;;;;;;0.57;0.43;;;8.60;99.90;;;;;;5073742;28;20588;-54
2022/11/21 00:03:09;;;;;;;1.60;0.50;;;8.50;99.90;;;;;;5074276;28;20228;-55
2022/11/21 00:05:39;;;;;;;2.50;0.43;;;8.50;99.90;;;;;;5074084;28;20227;-55
2022/11/21 00:08:06;;;;;;;1.33;0.40;;;8.40;99.90;;;;;;5073420;28;20209;-58
2022/11/21 00:10:33;;;;;;;0.30;0.30;;;8.50;99.90;;;;;;5073587;28;20362;-58
2022/11/21 00:13:00;;;;;;;0.83;0.57;;;8.50;99.90;;;;;;5074682;28;20568;-59
2022/11/21 00:15:29;;;;;;;1.80;0.40;;;8.50;99.90;;;;;;5074141;28;20212;-56
2022/11/21 00:17:55;;;;;;;1.57;0.37;;;8.50;99.90;;;;;;5073940;28;20205;-56
2022/11/21 00:20:22;;;;;;;0.90;0.50;;;8.50;99.90;;;;;;5074286;28;20626;-57
2022/11/21 00:22:50;;;;;;;1.93;0.60;;;8.50;99.90;;;;;;5073383;28;20221;-56
2022/11/21 00:25:16;;;;;;;1.07;0.70;;;8.50;99.90;;;;;;5074497;28;20209;-56
2022/11/21 00:27:44;;;;;;;2.17;0.67;;;8.50;99.90;;;;;;5074627;28;20212;-56
2022/11/21 00:30:11;;;;;;;2.20;0.70;;;8.50;99.90;;;;;;5073362;28;20720;-56
2022/11/21 00:32:40;;;;;;;1.13;0.50;;;8.50;99.90;;;;;;5073187;28;20201;-57
2022/11/21 00:35:07;;;;;;;0.50;0.50;;;8.50;99.90;;;;;;5073638;28;20208;-56
2022/11/21 00:37:34;;;;;;;1.83;0.60;;;8.50;99.90;;;;;;5073429;28;20207;-57
2022/11/21 00:40:01;;;;;;;0.87;0.60;;;8.40;99.90;;;;;;5073475;28;20220;-56
2022/11/21 00:42:28;;;;;;;2.03;0.53;;;8.40;99.90;;;;;;5073138;28;20233;-56
2022/11/21 00:44:55;;;;;;;1.57;0.50;;;8.30;99.90;;;;;;5073271;28;20719;-56
2022/11/21 00:47:21;;;;;;;0.77;0.40;;;8.20;99.90;;;;;;5072785;28;20205;-56
2022/11/21 00:49:49;;;;;;;1.40;0.50;;;8.20;99.90;;;;;;5072731;28;20231;-55
2022/11/21 00:52:17;;;;;;;0.50;0.50;;;8.20;99.90;;;;;;5072469;28;20205;-55
2022/11/21 00:54:44;;;;;;;0.80;0.50;;;8.10;99.90;;;;;;5073075;28;20208;-56
2022/11/21 00:57:11;;;;;;;0.90;0.60;;;8.10;99.90;;;;;;5073015;28;20209;-56
2022/11/21 00:59:37;;;;;;;0.67;0.30;;;8.20;99.90;;;;;;5072907;28;20231;-56
2022/11/21 01:02:05;;;;;;;0.83;0.50;;;8.10;99.90;;;;;;5072210;28;20244;-56
2022/11/21 01:04:32;;;;;;;1.10;0.70;;;8.10;99.90;;;;;;5072479;28;20204;-56
2022/11/21 01:07:01;;;;;;;0.53;0.40;;;8.10;99.90;;;;;;5072770;28;20213;-56
2022/11/21 01:09:28;;;;;;;0.47;0.40;;;8.10;99.90;;;;;;5072467;28;20233;-56
2022/11/21 01:11:55;;;;;;;0.67;0.40;;;7.90;99.90;;;;;;5072083;28;20212;-56
2022/11/21 01:14:22;;;;;;;0.80;0.60;;;7.70;99.90;;;;;;5072458;28;20201;-56
2022/11/21 01:16:48;;;;;;;1.67;0.30;;;7.80;99.90;;;;;;5072446;28;20200;-56
2022/11/21 01:19:15;;;;;;;0.43;0.30;;;7.80;99.90;;;;;;5072177;28;20231;-55
2022/11/21 01:21:42;;;;;;;0.73;0.50;;;7.80;99.90;;;;;;5072636;28;20208;-56
2022/11/21 01:24:12;;;;;;;0.47;0.47;;;7.80;99.90;;;;;;5072385;28;20229;-55
2022/11/21 01:26:39;;;;;;;1.00;0.30;;;7.90;99.90;;;;;;5072782;28;20215;-56
2022/11/21 01:29:07;;;;;;;0.73;0.50;;;7.90;99.90;;;;;;5072307;28;20250;-56
2022/11/21 01:31:34;;;;;;;1.87;0.60;;;7.90;99.90;;;;;;5071910;28;20219;-57
2022/11/21 01:34:01;;;;;;;0.30;0.30;;;8.00;99.90;;;;;;5072320;28;20207;-56
2022/11/21 01:36:29;;;;;;;0.50;0.40;;;8.00;99.90;;;;;;5072600;28;20208;-57
2022/11/21 01:38:59;;;;;;;1.20;0.73;;;8.10;99.90;;;;;;5072269;28;20205;-56
2022/11/21 01:41:30;;;;;;;1.70;0.40;;;8.10;99.90;;;;;;5071997;28;20219;-57
2022/11/21 01:43:57;;;;;;;0.77;0.50;;;8.20;99.90;;;;;;5072149;28;20252;-56
2022/11/21 01:46:25;;;;;;;2.90;0.60;;;8.30;99.90;;;;;;5072142;28;20209;-57
2022/11/21 01:48:55;;;;;;;1.20;0.57;;;8.20;99.90;;;;;;5072232;28;20205;-57
2022/11/21 01:51:25;;;;;;;0.47;0.20;;;8.20;99.90;;;;;;5071505;28;20208;-57
2022/11/21 01:53:56;;;;;;;2.10;0.70;;;8.20;99.90;;;;;;5072153;28;20205;-57
2022/11/21 01:56:25;;;;;;;1.53;0.40;;;8.20;99.90;;;;;;5072243;28;20208;-57
2022/11/21 01:58:57;;;;;;;3.33;0.57;;;8.30;99.90;;;;;;5075702;28;20216;-57
2022/11/21 02:01:24;;;;;;;1.80;0.87;;;8.30;99.90;;;;;;5075506;28;20287;-57
2022/11/21 02:03:54;;;;;;;1.30;0.43;;;8.40;99.90;;;;;;5076134;28;20240;-57
2022/11/21 02:06:21;;;;;;;1.30;0.50;;;8.30;99.90;;;;;;5075691;28;20217;-57
2022/11/21 02:08:48;;;;;;;0.83;0.47;;;8.30;99.90;;;;;;5076033;28;20205;-57
2022/11/21 02:11:21;;;;;;;3.10;1.00;;;8.10;99.90;;;;;;5075422;28;20209;-57
2022/11/21 02:13:47;;;;;;;0.83;0.40;;;8.10;99.90;;;;;;5076120;28;20209;-57
2022/11/21 02:16:15;;;;;;;2.23;0.80;;;8.10;99.90;;;;;;5075142;28;20673;-55
2022/11/21 02:18:42;;;;;;;2.17;0.50;;;8.10;99.90;;;;;;5075657;28;20700;-57
2022/11/21 02:21:19;;;;;;;1.07;0.40;;;8.10;99.90;;;;;;5075099;28;20228;-57
2022/11/21 02:23:51;;;;;;;1.90;0.90;;;8.10;99.90;;;;;;5075430;28;20220;-57
2022/11/21 02:26:19;;;;;;;1.07;0.37;;;8.00;99.90;;;;;;5075730;28;20205;-57
2022/11/21 02:28:46;;;;;;;1.67;0.70;;;8.00;99.90;;;;;;5075747;28;20321;-57
2022/11/21 02:31:13;;;;;;;1.07;0.50;;;8.10;99.90;;;;;;5075011;28;20300;-57
2022/11/21 02:33:40;;;;;;;1.03;0.43;;;8.10;99.90;;;;;;5075506;28;20216;-57
2022/11/21 02:36:33;;;;;;;1.20;0.53;;;8.10;99.90;;;;;;5075707;28;20209;-57
2022/11/21 02:39:00;;;;;;;1.67;0.40;;;8.10;99.90;;;;;;5075648;28;20205;-56
2022/11/21 02:41:30;;;;;;;0.97;0.47;;;8.00;99.90;;;;;;5075236;28;20205;-57
2022/11/21 02:44:02;;;;;;;0.67;0.30;;;7.90;99.90;;;;;;5075437;28;20225;-57
2022/11/21 02:46:29;;;;;;;1.53;0.50;;;8.00;99.90;;;;;;5075623;28;20216;-57
2022/11/21 02:48:58;;;;;;;1.93;0.50;;;8.00;99.90;;;;;;5075504;28;20208;-57
2022/11/21 02:51:25;;;;;;;1.67;0.50;;;8.00;99.90;;;;;;5074659;28;20204;-57
2022/11/21 02:53:51;;;;;;;2.27;1.13;;;8.10;99.90;;;;;;5075454;28;20576;-57
2022/11/21 02:56:18;;;;;;;1.73;0.80;;;8.00;99.90;;;;;;5075254;28;20673;-57
2022/11/21 02:58:46;;;;;;;2.33;0.80;;;8.00;99.90;;;;;;5075256;28;20581;-57
2022/11/21 03:01:13;;;;;;;1.73;0.70;;;7.90;99.90;;;;;;5074346;28;20212;-56
2022/11/21 03:03:40;;;;;;;1.57;0.67;;;7.90;99.90;;;;;;5074989;28;20224;-57
2022/11/21 03:06:06;;;;;;;0.60;0.30;;;7.90;99.90;;;;;;5074958;28;20217;-57
2022/11/21 03:08:33;;;;;;;1.57;0.60;;;7.90;99.90;;;;;;5073744;28;20215;-57
2022/11/21 03:11:00;;;;;;;0.93;0.60;;;7.90;99.90;;;;;;5074274;28;20236;-57
2022/11/21 03:13:27;;;;;;;1.40;0.33;;;7.90;99.90;;;;;;5074854;28;20197;-57
2022/11/21 03:15:55;;;;;;;1.13;0.40;;;7.90;99.90;;;;;;5074371;28;20212;-57
2022/11/21 03:18:22;;;;;;;0.30;0.20;;;8.00;99.90;;;;;;5074545;28;20266;-57
2022/11/21 03:20:48;;;;;;;0.50;0.20;;;7.90;99.90;;;;;;5073903;28;20233;-58
2022/11/21 03:23:15;;;;;;;0.23;0.10;;;8.00;99.90;;;;;;5074575;28;20239;-57
2022/11/21 03:25:42;;;;;;;1.63;0.53;;;8.00;99.90;;;;;;5074548;28;20212;-57
2022/11/21 03:28:09;;;;;;;0.30;0.20;;;7.90;99.90;;;;;;5074783;28;20209;-57
2022/11/21 03:30:36;;;;;;;0.63;0.40;;;7.90;99.90;;;;;;5074485;28;20709;-57
2022/11/21 03:33:04;;;;;;;0.87;0.30;;;7.80;99.90;;;;;;5074570;28;20669;-56
2022/11/21 03:35:31;;;;;;;0.40;0.23;;;7.80;99.90;;;;;;5074677;28;20215;-56
2022/11/21 03:37:57;;;;;;;0.40;0.30;;;7.70;99.90;;;;;;5075130;28;20753;-56
2022/11/21 03:40:24;;;;;;;0.73;0.40;;;7.70;99.90;;;;;;5074358;28;20225;-55
2022/11/21 03:42:51;;;;;;;1.07;0.40;;;7.80;99.90;;;;;;5074317;28;20687;-56
2022/11/21 03:45:18;;;;;;;1.03;0.67;;;7.80;99.90;;;;;;5073964;28;20213;-55
2022/11/21 03:47:44;;;;;;;2.53;0.63;;;7.90;99.90;;;;;;5074148;28;20208;-56
2022/11/21 03:50:17;;;;;;;2.13;0.87;;;7.90;99.90;;;;;;5074048;28;20220;-56
2022/11/21 03:52:44;;;;;;;0.50;0.30;;;8.00;99.90;;;;;;5073052;28;20215;-56
2022/11/21 03:55:10;;;;;;;0.60;0.23;;;8.00;99.90;;;;;;5073909;28;20216;-56
2022/11/21 03:57:38;;;;;;;0.90;0.37;;;8.00;99.90;;;;;;5073882;28;20212;-56
2022/11/21 04:00:06;;;;;;;1.03;0.30;;;8.10;99.90;;;;;;5073505;28;20732;-56
2022/11/21 04:02:33;;;;;;;0.83;0.70;;;8.10;99.90;;;;;;5073222;28;20207;-56
2022/11/21 04:04:59;;;;;;;0.53;0.53;;;8.00;99.90;;;;;;5073539;28;20225;-56
2022/11/21 04:07:28;;;;;;;0.63;0.43;;;8.00;99.90;;;;;;5073740;28;20221;-56
2022/11/21 04:09:55;;;;;;;0.60;0.43;;;8.00;99.90;;;;;;5073894;28;20319;-56
2022/11/21 04:12:22;;;;;;;1.37;0.30;;;8.00;99.90;;;;;;5072856;28;20208;-56
2022/11/21 04:14:49;;;;;;;0.83;0.47;;;8.00;99.90;;;;;;5073676;28;20201;-56
2022/11/21 04:17:16;;;;;;;0.73;0.50;;;8.10;99.90;;;;;;5073379;28;20207;-56
2022/11/21 04:19:42;;;;;;;0.80;0.40;;;8.10;99.90;;;;;;5073246;28;20281;-56
2022/11/21 04:22:09;;;;;;;0.50;0.47;;;8.10;99.90;;;;;;5072667;28;20205;-56
2022/11/21 04:24:37;;;;;;;0.50;0.50;;;8.10;99.90;;;;;;5073191;28;20233;-56
2022/11/21 04:27:04;;;;;;;0.30;0.30;;;8.10;99.90;;;;;;5073319;28;20204;-56
2022/11/21 04:29:31;;;;;;;1.43;0.83;;;8.10;99.90;;;;;;5073030;28;20224;-56
2022/11/21 04:31:57;;;;;;;0.97;0.60;;;8.10;99.90;;;;;;5072784;28;20207;-56
2022/11/21 04:34:24;;;;;;;1.53;1.03;;;8.20;99.90;;;;;;5073416;28;20205;-56
2022/11/21 04:36:51;;;;;;;5.17;2.93;;;8.20;99.90;;;;;;5073300;28;20200;-56
2022/11/21 04:39:17;;;;;;;2.50;1.47;;;8.20;99.90;;;;;;5072584;28;20227;-56
2022/11/21 04:41:46;;;;;;;1.50;0.60;;;8.30;99.90;;;;;;5072513;28;20209;-57
2022/11/21 04:44:12;;;;;;;0.90;0.60;;;8.20;99.90;;;;;;5072784;28;20631;-56
2022/11/21 04:46:39;;;;;;;3.23;0.77;;;8.30;99.90;;;;;;5072858;28;20205;-57
2022/11/21 04:49:06;;;;;;;1.07;0.43;;;8.30;99.90;;;;;;5072655;28;20235;-56
2022/11/21 04:51:33;;;;;;;1.80;0.50;;;8.30;99.90;;;;;;5072375;28;20205;-56
2022/11/21 04:53:59;;;;;;;1.47;0.60;;;8.40;99.90;;;;;;5072792;28;20224;-56
2022/11/21 04:56:26;;;;;;;1.27;0.77;;;8.40;99.90;;;;;;5073000;28;20209;-57
2022/11/21 04:58:54;;;;;;;1.20;0.67;;;8.40;99.90;;;;;;5072737;28;20209;-57
2022/11/21 05:01:21;;;;;;;1.80;0.60;;;8.50;99.90;;;;;;5072033;28;20684;-55
2022/11/21 05:03:48;;;;;;;1.13;0.57;;;8.50;99.90;;;;;;5072401;28;20221;-57
2022/11/21 05:06:14;;;;;;;1.33;1.20;;;8.40;99.90;;;;;;5072409;28;20213;-56
2022/11/21 05:08:41;;;;;;;0.70;0.60;;;8.40;99.90;;;;;;5071995;28;20305;-56
2022/11/21 05:13:54;;;;;;;1.30;0.53;;;8.40;99.90;;;;;;5072871;28;20195;-56
2022/11/21 05:16:21;;;;;;;1.23;0.50;;;8.30;99.90;;;;;;5072656;28;20209;-55
2022/11/21 05:18:48;;;;;;;0.90;0.57;;;8.40;99.90;;;;;;5072717;28;20200;-56
2022/11/21 05:21:14;;;;;;;1.20;0.70;;;8.30;99.90;;;;;;5072030;28;20205;-56
2022/11/21 05:23:41;;;;;;;1.93;0.60;;;8.30;99.90;;;;;;5072573;28;20229;-56
2022/11/21 05:26:08;;;;;;;2.27;0.50;;;8.30;99.90;;;;;;5072385;28;20200;-55
2022/11/21 05:28:35;;;;;;;1.77;0.80;;;8.30;99.90;;;;;;5072392;28;20204;-57
2022/11/21 05:31:03;;;;;;;1.17;0.73;;;8.30;99.90;;;;;;5071126;28;20224;-56
2022/11/21 05:33:30;;;;;;;0.50;0.40;;;8.40;99.90;;;;;;5071931;28;20212;-56
2022/11/21 05:35:56;;;;;;;1.13;0.60;;;8.50;99.90;;;;;;5072339;28;20212;-56
2022/11/21 05:38:23;;;;;;;2.87;0.80;;;8.60;99.90;;;;;;5072224;28;20212;-57
2022/11/21 05:40:52;;;;;;;3.17;0.60;;;8.60;99.90;;;;;;5072372;28;20235;-56
2022/11/21 05:46:20;;;;;;;2.27;0.87;;;8.70;99.90;;;;;;5010270;28;20195;-55
2022/11/21 05:48:49;;;;;;;2.90;1.27;;;8.60;99.90;;;;;;5010386;28;20287;-56
2022/11/21 05:51:16;;;;;;;2.03;0.70;;;8.60;99.90;;;;;;5038091;28;20299;-56
2022/11/21 05:53:44;;;;;;;2.00;0.80;;;8.70;99.90;;;;;;5072537;28;20204;-56
2022/11/21 05:56:13;;;;;;;2.70;1.17;;;8.70;99.90;;;;;;5071930;28;20296;-56
2022/11/21 05:58:40;;;;;;;1.83;1.00;;;8.60;99.90;;;;;;5071867;28;20258;-57
2022/11/21 06:01:08;;;;;;;2.30;0.93;;;8.70;99.90;;;;;;5071550;28;20225;-56
2022/11/21 06:03:36;;;;;;;4.37;1.37;;;8.70;99.90;;;;;;5072080;28;20213;-56
2022/11/21 06:06:05;;;;;;;2.97;1.00;;;8.70;99.90;;;;;;5071761;28;20727;-56
2022/11/21 06:08:34;;;;;;;2.73;1.70;;;8.70;99.90;;;;;;5071952;28;20744;-55
2022/11/21 06:11:02;;;;;;;2.93;1.67;;;8.80;99.90;;;;;;5071942;28;20225;-56
2022/11/21 06:13:29;;;;;;;4.90;1.40;;;8.80;99.90;;;;;;5071722;28;20201;-56
2022/11/21 06:16:00;;;;;;;3.73;1.00;;;8.80;99.90;;;;;;5071986;28;20300;-57
2022/11/21 06:18:27;;;;;;;4.23;1.57;;;8.90;99.90;;;;;;5072054;28;20224;-56
2022/11/21 06:21:01;;;;;;;2.57;1.30;;;8.90;99.90;;;;;;5071575;28;20320;-56
2022/11/21 06:23:27;;;;;;;2.87;1.40;;;9.00;99.90;;;;;;5070914;28;20209;-55
2022/11/21 06:25:57;;;;;;;3.57;1.87;;;8.90;99.90;;;;;;5071826;28;20228;-56
2022/11/21 06:28:23;;;;;;;4.13;1.50;;;8.90;99.90;;;;;;5071700;28;20216;-56
2022/11/21 06:30:51;;;;;;;6.23;3.80;;;8.80;99.90;;;;;;5071710;28;20225;-56
2022/11/21 06:33:18;;;;;;;2.20;1.43;;;8.70;99.90;;;;;;5070945;28;20572;-56
2022/11/21 06:35:45;;;;;;;4.80;1.50;;;8.60;99.90;;;;;;5071522;28;20208;-55
2022/11/21 06:38:13;;;;;;;2.97;1.60;;;8.50;99.90;;;;;;5071507;28;20205;-55
2022/11/21 06:40:40;;;;;;;3.23;1.60;;;8.40;99.90;;;;;;5071371;28;20541;-56
2022/11/21 06:43:07;;;;;;;4.30;1.23;;;8.30;99.90;;;;;;5071032;28;20213;-56
2022/11/21 06:45:33;;;;;;;4.63;1.10;;;8.20;99.90;;;;;;5074843;28;20224;-56
2022/11/21 06:48:02;;;;;;;24.03;14.23;;;8.20;99.90;;;;;;5075065;28;20580;-56
2022/11/21 06:50:29;;;;;;;2.93;1.30;;;8.20;99.90;;;;;;5074859;28;20225;-56
2022/11/21 06:52:57;;;;;;;2.60;1.30;;;8.30;99.90;;;;;;5074534;28;20680;-56
2022/11/21 06:55:26;;;;;;;4.17;1.70;;;8.30;99.90;;;;;;5074875;28;20198;-56
2022/11/21 06:57:53;;;;;;;4.67;1.60;;;8.20;99.90;;;;;;5074987;28;20216;-56
2022/11/21 07:00:20;;;;;;;1.70;1.10;;;8.20;99.90;;;;;;5074906;28;20225;-56
2022/11/21 07:02:47;;;;;;;5.00;1.90;;;8.20;99.90;;;;;;5074592;28;20585;-56
2022/11/21 07:05:14;;;;;;;4.40;1.47;;;8.20;99.90;;;;;;5074648;28;20758;-55
2022/11/21 07:07:41;;;;;;;3.87;1.50;;;8.20;99.90;;;;;;5074955;28;20287;-55
2022/11/21 07:10:08;;;;;;;5.97;1.80;;;8.30;99.90;;;;;;5074531;28;20232;-56
2022/11/21 07:15:21;;;;;;;3.40;1.43;;;8.30;99.90;;;;;;5074922;28;20583;-56
2022/11/21 07:17:48;;;;;;;4.97;1.80;;;8.30;99.90;;;;;;5074737;28;20208;-57
2022/11/21 07:20:15;;;;;;;3.43;1.93;;;8.40;99.90;;;;;;5075186;28;20232;-56
2022/11/21 07:22:42;;;;;;;8.53;2.60;;;8.50;99.90;;;;;;5074483;28;20212;-56
2022/11/21 07:25:09;;;;;;;8.10;3.10;;;8.60;99.90;;;;;;5074854;28;20225;-56
2022/11/21 07:27:37;;;;;;;3.03;1.53;;;8.70;99.90;;;;;;5074768;28;20208;-55
2022/11/21 07:30:05;;;;;;;4.57;1.40;;;8.80;99.90;;;;;;5074349;28;20232;-56
2022/11/21 07:32:32;;;;;;;5.93;1.43;;;8.90;99.90;;;;;;5074007;28;20205;-55
2022/11/21 07:34:59;;;;;;;2.20;1.30;;;8.90;99.90;;;;;;5074894;28;20208;-55
2022/11/21 07:37:26;;;;;;;2.77;1.50;;;9.00;99.90;;;;;;5074576;28;20238;-55
2022/11/21 07:39:53;;;;;;;3.20;1.50;;;9.10;99.90;;;;;;5074664;28;20225;-55
2022/11/21 07:42:19;;;;;;;2.97;1.20;;;9.20;99.90;;;;;;5074211;28;20244;-55
2022/11/21 07:44:48;;;;;;;3.00;1.40;;;9.40;99.90;;;;;;5073810;28;20596;-56
2022/11/21 07:47:14;;;;;;;1.77;1.30;;;9.50;99.90;;;;;;5074636;28;20200;-57
2022/11/21 07:49:41;;;;;;;2.70;1.17;;;9.70;99.90;;;;;;5074317;28;20228;-56
2022/11/21 07:52:08;;;;;;;2.00;0.90;;;9.70;99.90;;;;;;5073608;28;20325;-56
2022/11/21 07:54:35;;;;;;;5.00;1.07;;;9.60;99.90;;;;;;5074009;28;20592;-56
2022/11/21 07:57:02;;;;;;;3.27;1.10;;;9.50;99.90;;;;;;5074603;28;20215;-57
2022/11/21 07:59:29;;;;;;;2.10;0.80;;;9.50;99.90;;;;;;5073817;28;20231;-57
2022/11/21 08:01:57;;;;;;;2.67;1.17;;;9.70;99.90;;;;;;5073424;28;20673;-57
2022/11/21 08:04:24;;;;;;;1.93;0.80;;;10.00;99.90;;;;;;5074367;28;20673;-57
2022/11/21 08:06:51;;;;;;;3.70;0.97;;;10.20;99.90;;;;;;5074507;28;20263;-59
2022/11/21 08:09:17;;;;;;;4.33;1.33;;;10.40;99.90;;;;;;5074270;28;20233;-57
2022/11/21 08:11:44;;;;;;;1.33;1.00;;;10.60;99.90;;;;;;5073700;28;20216;-57
2022/11/21 08:14:11;;;;;;;7.77;4.83;;;10.60;99.90;;;;;;5074107;28;20208;-56
2022/11/21 08:16:38;;;;;;;4.00;1.87;;;10.60;99.90;;;;;;5073824;28;20209;-57
2022/11/21 08:19:06;;;;;;;2.63;1.00;;;10.60;99.90;;;;;;5073417;28;20232;-56
2022/11/21 08:21:33;;;;;;;3.53;1.27;;;10.40;99.90;;;;;;5072756;28;20291;-56
2022/11/21 08:24:00;;;;;;;3.73;1.17;;;10.30;99.90;;;;;;5073251;28;20230;-57
2022/11/21 08:26:27;;;;;;;1.27;0.97;;;10.20;99.90;;;;;;5073072;28;20697;-56
2022/11/21 08:28:54;;;;;;;4.57;2.17;;;10.20;99.90;;;;;;5073343;28;20205;-57
2022/11/21 08:31:21;;;;;;;2.03;1.03;;;10.10;99.90;;;;;;5072703;28;20251;-56
2022/11/21 08:33:48;;;;;;;4.77;4.00;;;10.10;99.90;;;;;;5073402;28;20209;-57
2022/11/21 08:36:16;;;;;;;3.57;0.90;;;10.40;99.90;;;;;;5073065;28;20207;-57
2022/11/21 08:38:43;;;;;;;2.20;1.07;;;10.70;99.90;;;;;;5073134;28;20204;-57
2022/11/21 08:43:56;;;;;;;3.93;1.57;;;11.00;99.90;;;;;;5073013;28;20284;-57
2022/11/21 08:46:26;;;;;;;2.00;0.90;;;11.00;99.90;;;;;;5072972;28;20294;-56
2022/11/21 08:48:53;;;;;;;3.57;1.27;;;10.90;99.90;;;;;;5072728;28;20233;-57
2022/11/21 08:51:21;;;;;;;2.83;1.10;;;10.80;99.90;;;;;;5072251;28;20580;-57
2022/11/21 08:53:48;;;;;;;2.60;1.30;;;10.70;99.90;;;;;;5071484;28;20201;-57
2022/11/21 08:56:15;;;;;;;2.53;1.23;;;10.70;99.90;;;;;;5048014;28;20300;-57
2022/11/21 08:58:41;;;;;;;2.37;1.20;;;10.90;99.90;;;;;;5051732;28;20202;-57
2022/11/21 09:01:08;;;;;;;2.33;1.47;;;11.10;99.90;;;;;;5050672;28;20229;-57
2022/11/21 09:03:35;;;;;;;3.67;1.20;;;11.30;99.90;;;;;;5051390;28;20292;-57
2022/11/21 09:06:02;;;;;;;3.10;1.30;;;11.30;99.90;;;;;;5050043;28;20233;-57
2022/11/21 09:08:30;;;;;;;4.20;1.23;;;11.40;99.90;;;;;;5051688;28;20206;-57
2022/11/21 09:10:57;;;;;;;2.57;1.20;;;11.60;99.90;;;;;;5051387;28;20235;-57
2022/11/21 09:13:24;;;;;;;5.10;1.50;;;11.70;99.90;;;;;;5051077;28;20202;-57
2022/11/21 09:18:37;;;;;;;3.03;1.00;;;12.20;99.90;;;;;;5017271;28;20251;-57
2022/11/21 09:21:04;;;;;;;3.73;1.40;;;12.50;99.90;;;;;;5051061;28;20229;-57
2022/11/21 09:23:32;;;;;;;4.53;1.33;;;12.70;99.90;;;;;;5050922;28;20300;-58
2022/11/21 09:26:00;;;;;;;4.90;1.67;;;12.80;99.90;;;;;;5050885;28;20232;-58
2022/11/21 09:28:27;;;;;;;6.57;2.00;;;12.80;99.90;;;;;;5051048;28;20205;-61
2022/11/21 09:30:53;;;;;;;7.07;4.67;;;12.80;99.90;;;;;;5050452;28;20232;-60
2022/11/21 09:33:20;;;;;;;4.73;2.50;;;12.80;99.90;;;;;;5050633;28;20212;-60
2022/11/21 09:35:47;;;;;;;8.00;2.37;;;12.70;99.90;;;;;;5050780;28;20662;-61
2022/11/21 09:38:14;;;;;;;4.50;1.10;;;12.60;99.90;;;;;;5051361;28;20205;-60
2022/11/21 09:40:45;;;;;;;4.40;1.37;;;12.60;99.90;;;;;;5051209;28;20244;-60
2022/11/21 09:43:43;;;;;;;3.17;1.17;;;12.60;99.90;;;;;;5050232;28;20206;-58
2022/11/21 09:46:12;;;;;;;5.90;1.90;;;12.50;99.90;;;;;;5050573;28;20222;-60
2022/11/21 09:48:47;;;;;;;6.40;2.30;;;12.40;99.90;;;;;;5051417;28;20209;-60
2022/11/21 09:51:16;;;;;;;5.90;2.00;;;12.30;99.90;;;;;;5050965;28;20209;-59
2022/11/21 09:53:54;;;;;;;4.90;1.90;;;12.20;99.90;;;;;;5050605;28;20205;-61
2022/11/21 09:56:23;;;;;;;4.53;2.27;;;12.20;99.90;;;;;;5050487;28;20242;-60
2022/11/21 09:59:05;;;;;;;5.30;3.77;;;12.10;99.90;;;;;;5050957;28;20206;-60
2022/11/21 10:01:32;;;;;;;4.70;2.07;;;12.00;99.90;;;;;;5050387;28;20209;-60
2022/11/21 10:04:02;;;;;;;2.57;1.37;;;11.90;99.90;;;;;;5051264;28;20309;-60
2022/11/21 10:06:31;;;;;;;5.03;1.57;;;11.80;99.90;;;;;;5050206;28;20221;-59
2022/11/21 10:09:07;;;;;;;7.93;5.00;;;11.80;99.90;;;;;;5050937;28;20210;-61
2022/11/21 10:14:36;;;;;;;6.20;3.17;;;11.90;99.90;;;;;;5051097;28;20205;-60
2022/11/21 10:17:13;;;;;;;4.47;1.63;;;12.00;99.90;;;;;;5051538;28;20209;-61
2022/11/21 10:20:01;;;;;;;5.50;1.40;;;11.80;99.90;;;;;;5055257;28;20225;-61
2022/11/21 10:22:43;;;;;;;7.07;1.67;;;11.90;99.90;;;;;;5054125;28;20804;-59
2022/11/21 10:25:14;;;;;;;4.83;1.73;;;11.90;99.90;;;;;;5054621;28;20225;-61
2022/11/21 10:27:50;;;;;;;2.80;1.30;;;12.00;99.90;;;;;;5055715;28;20209;-61
2022/11/21 10:30:18;;;;;;;6.93;1.77;;;12.10;99.90;;;;;;5055433;28;20251;-62
2022/11/21 10:32:48;;;;;;;5.67;1.80;;;12.20;99.90;;;;;;5054470;28;20209;-62
2022/11/21 10:35:19;;;;;;;6.37;2.57;;;12.30;99.90;;;;;;5055598;28;20451;-61
2022/11/21 10:37:51;;;;;;;3.33;1.73;;;12.30;99.90;;;;;;5055829;28;20217;-61
2022/11/21 10:40:31;;;;;;;5.03;2.67;;;12.30;99.90;;;;;;5055643;28;20221;-61
2022/11/21 10:45:15;;;;;;;3.50;1.30;;;12.30;99.90;;;;;;5055213;28;20666;-61
2022/11/21 10:45:52;;;;;;;5.50;2.27;;;12.20;99.90;;;;;;5055825;28;20236;-61
2022/11/21 10:48:19;;;;;;;8.57;4.20;;;12.10;99.90;;;;;;5056168;28;20708;-61
2022/11/21 10:51:04;;;;;;;3.90;2.00;;;12.00;99.90;;;;;;5055960;28;20252;-62
2022/11/21 10:56:19;;;;;;;3.17;1.60;;;12.50;99.90;;;;;;5055875;28;20201;-60
2022/11/21 10:58:49;;;;;;;4.63;1.40;;;12.80;99.90;;;;;;5056212;28;20262;-59
2022/11/21 11:01:26;;;;;;;4.67;1.70;;;12.70;99.90;;;;;;5055599;28;20248;-60
2022/11/21 11:04:16;;;;;;;3.87;1.40;;;12.70;99.90;;;;;;5054223;28;20294;-60
2022/11/21 11:06:45;;;;;;;4.67;1.50;;;12.30;99.90;;;;;;5055169;28;20253;-60
2022/11/21 11:09:27;;;;;;;3.37;1.70;;;12.30;99.90;;;;;;5055493;28;20224;-60
2022/11/21 11:12:14;;;;;;;4.90;1.90;;;12.20;99.90;;;;;;5055149;28;20213;-60
2022/11/21 11:14:50;;;;;;;3.77;1.50;;;12.20;99.90;;;;;;5055123;28;20240;-60
2022/11/21 11:17:25;;;;;;;3.53;1.50;;;11.80;99.90;;;;;;5054389;28;20229;-59
2022/11/21 11:20:01;;;;;;;5.53;1.85;;;11.40;99.90;;;;;;5054393;28;20999;-59
2022/11/21 11:22:29;;;;;;;5.30;1.77;;;11.20;99.90;;;;;;5064549;28;20270;-60
2022/11/21 11:24:56;;;;;;;4.67;1.53;;;11.00;99.90;;;;;;5075728;28;20566;-57
2022/11/21 11:27:27;;;;;;;2.80;1.40;;;10.80;99.90;;;;;;5074271;28;20221;-59
2022/11/21 11:29:55;;;;;;;5.40;1.20;;;10.40;99.90;;;;;;5073426;28;20260;-59
2022/11/21 11:32:23;;;;;;;6.77;1.73;;;10.20;99.90;;;;;;5074002;28;20238;-58
2022/11/21 11:34:59;;;;;;;42.47;35.90;;;10.00;99.90;;;;;;5074418;28;20550;-60
2022/11/21 11:37:34;;;;;;;5.57;1.57;;;9.90;99.90;;;;;;5074387;28;20261;-60
2022/11/21 11:40:14;;;;;;;4.20;1.33;;;9.70;99.90;;;;;;5073671;28;20776;-60
2022/11/21 11:48:58;;;;;;;4.13;1.40;;;10.20;99.90;;;;;;5071809;28;20700;-59
2022/11/21 11:51:34;;;;;;;5.17;1.40;;;10.50;99.90;;;;;;5072476;28;20576;-61
2022/11/21 11:54:07;;;;;;;3.97;1.83;;;10.80;99.90;;;;;;5072259;28;20208;-58
2022/11/21 11:56:44;;;;;;;3.80;1.33;;;10.90;99.90;;;;;;5072905;28;20197;-58
2022/11/21 11:59:20;;;;;;;3.53;1.53;;;11.10;99.90;;;;;;5072887;28;20229;-56
2022/11/21 12:01:51;;;;;;;3.60;1.50;;;11.00;99.90;;;;;;5072452;28;20616;-62
2022/11/21 12:04:20;;;;;;;3.97;1.30;;;10.90;99.90;;;;;;5072971;28;20201;-60
2022/11/21 12:06:53;;;;;;;4.07;1.63;;;11.00;99.90;;;;;;5073327;28;20232;-62
2022/11/21 12:09:28;;;;;;;2.20;1.10;;;10.90;99.90;;;;;;5072291;28;20266;-57
2022/11/21 12:12:08;;;;;;;6.30;3.07;;;10.90;99.90;;;;;;5072806;28;20211;-59
2022/11/21 12:17:37;;;;;;;5.63;1.73;;;10.80;99.90;;;;;;5072274;28;20792;-58
2022/11/21 12:20:14;;;;;;;3.93;1.70;;;10.40;99.90;;;;;;5072530;28;20231;-57
2022/11/21 12:22:42;;;;;;;2.33;1.20;;;10.30;99.90;;;;;;5071705;28;20207;-58
2022/11/21 12:25:11;;;;;;;9.90;2.50;;;10.40;99.90;;;;;;5071769;28;20283;-58
2022/11/21 12:27:41;;;;;;;2.80;1.60;;;10.40;99.90;;;;;;5072199;28;20248;-61
2022/11/21 12:30:49;;;;;;;3.33;1.60;;;10.40;99.90;;;;;;5071907;28;20228;-60
2022/11/21 12:33:21;;;;;;;3.20;1.37;;;10.60;99.90;;;;;;5065688;28;20212;-63
2022/11/21 12:36:08;;;;;;;3.63;1.30;;;10.50;99.90;;;;;;5072241;28;20213;-57
2022/11/21 12:38:59;;;;;;;4.80;1.30;;;10.50;99.90;;;;;;5071948;28;20205;-57
2022/11/21 12:44:38;;;;;;;3.13;1.40;;;10.20;99.90;;;;;;5071752;28;20204;-57
2022/11/21 12:47:20;;;;;;;3.83;1.30;;;10.00;99.90;;;;;;5071059;28;20233;-57
2022/11/21 12:55:35;;;;;;;4.03;1.90;;;9.90;99.90;;;;;;5071636;28;20242;-57
2022/11/21 12:58:23;;;;;;;6.50;2.20;;;9.80;99.90;;;;;;5071241;28;20624;-55
2022/11/21 13:01:02;;;;;;;5.53;2.27;;;9.70;99.90;;;;;;5071510;28;20235;-57
2022/11/21 13:03:47;;;;;;;3.80;2.10;;;9.80;99.90;;;;;;5070763;28;20204;-56
2022/11/21 13:06:19;;;;;;;3.60;1.90;;;10.00;99.90;;;;;;5070796;28;20229;-55
2022/11/21 13:08:48;;;;;;;5.30;2.27;;;10.20;99.90;;;;;;5071598;28;20680;-55
2022/11/21 13:14:21;;;;;;;3.53;1.57;;;10.40;99.90;;;;;;5071817;28;20239;-56
2022/11/21 13:16:58;;;;;;;4.07;1.50;;;10.60;99.90;;;;;;5071913;28;20700;-56
2022/11/21 13:19:36;;;;;;;4.07;1.37;;;10.70;99.90;;;;;;5071765;28;20229;-57
2022/11/21 13:22:04;;;;;;;2.90;1.30;;;10.70;99.90;;;;;;5071775;28;20691;-56
2022/11/21 13:25:00;;;;;;;3.03;0.97;;;10.70;99.90;;;;;;5071928;28;20216;-56
2022/11/21 13:27:29;;;;;;;5.63;1.13;;;10.60;99.90;;;;;;5071838;28;20228;-56
2022/11/21 13:30:20;;;;;;;1.90;0.90;;;10.60;99.90;;;;;;5071911;28;20727;-56
2022/11/21 13:32:49;;;;;;;3.57;1.47;;;10.60;99.90;;;;;;5071185;28;20258;-56
2022/11/21 13:36:05;;;;;;;3.03;1.80;;;10.70;99.90;;;;;;5071605;28;20209;-56
2022/11/21 13:39:12;;;;;;;2.63;1.50;;;10.70;99.90;;;;;;5071655;28;20209;-56
2022/11/21 13:44:44;;;;;;;4.40;1.60;;;10.80;99.90;;;;;;5071448;28;20261;-56
2022/11/21 13:47:29;;;;;;;2.70;1.60;;;10.80;99.90;;;;;;5070316;28;20221;-56
2022/11/21 13:50:05;;;;;;;3.57;1.80;;;10.80;99.90;;;;;;5071448;28;20235;-56